sensor_id;sensor_type;location;lat;lon;timestamp;P1;durP1;ratioP1;P2;durP2;ratioP2
44822;SDS011;51097;51.984;5.650;2022-08-07T00:00:27;2.90;;;1.83;;
44822;SDS011;51097;51.984;5.650;2022-08-07T00:02:53;1.60;;;1.38;;
44822;SDS011;51097;51.984;5.650;2022-08-07T00:05:22;1.88;;;1.67;;
44822;SDS011;51097;51.984;5.650;2022-08-07T00:07:48;5.18;;;1.83;;
44822;SDS011;51097;51.984;5.650;2022-08-07T00:10:14;2.03;;;1.83;;
44822;SDS011;51097;51.984;5.650;2022-08-07T00:12:40;1.95;;;1.73;;
44822;SDS011;51097;51.984;5.650;2022-08-07T00:15:07;2.40;;;1.67;;
44822;SDS011;51097;51.984;5.650;2022-08-07T00:17:33;2.88;;;2.05;;
44822;SDS011;51097;51.984;5.650;2022-08-07T00:19:59;2.63;;;2.40;;
44822;SDS011;51097;51.984;5.650;2022-08-07T00:22:25;3.65;;;2.08;;
44822;SDS011;51097;51.984;5.650;2022-08-07T00:24:50;2.45;;;1.88;;
44822;SDS011;51097;51.984;5.650;2022-08-07T00:27:16;2.55;;;1.90;;
44822;SDS011;51097;51.984;5.650;2022-08-07T00:29:41;2.70;;;1.70;;
44822;SDS011;51097;51.984;5.650;2022-08-07T00:32:07;2.20;;;1.67;;
44822;SDS011;51097;51.984;5.650;2022-08-07T00:34:33;3.58;;;2.38;;
44822;SDS011;51097;51.984;5.650;2022-08-07T00:36:59;2.72;;;2.50;;
44822;SDS011;51097;51.984;5.650;2022-08-07T00:39:24;3.03;;;2.78;;
44822;SDS011;51097;51.984;5.650;2022-08-07T00:41:51;5.15;;;3.35;;
44822;SDS011;51097;51.984;5.650;2022-08-07T00:44:19;5.00;;;3.38;;
44822;SDS011;51097;51.984;5.650;2022-08-07T00:46:44;9.15;;;3.78;;
44822;SDS011;51097;51.984;5.650;2022-08-07T00:49:10;5.68;;;3.50;;
44822;SDS011;51097;51.984;5.650;2022-08-07T00:51:36;5.63;;;3.58;;
44822;SDS011;51097;51.984;5.650;2022-08-07T00:54:02;4.43;;;3.38;;
44822;SDS011;51097;51.984;5.650;2022-08-07T00:56:28;7.20;;;4.78;;
44822;SDS011;51097;51.984;5.650;2022-08-07T00:58:54;4.00;;;3.40;;
44822;SDS011;51097;51.984;5.650;2022-08-07T01:01:20;6.90;;;4.63;;
44822;SDS011;51097;51.984;5.650;2022-08-07T01:03:47;5.45;;;4.10;;
44822;SDS011;51097;51.984;5.650;2022-08-07T01:06:15;4.70;;;3.83;;
44822;SDS011;51097;51.984;5.650;2022-08-07T01:08:42;5.72;;;4.50;;
44822;SDS011;51097;51.984;5.650;2022-08-07T01:11:08;5.85;;;4.90;;
44822;SDS011;51097;51.984;5.650;2022-08-07T01:13:35;5.15;;;4.32;;
44822;SDS011;51097;51.984;5.650;2022-08-07T01:16:01;5.60;;;4.80;;
44822;SDS011;51097;51.984;5.650;2022-08-07T01:18:28;5.65;;;4.30;;
44822;SDS011;51097;51.984;5.650;2022-08-07T01:21:27;7.18;;;4.22;;
44822;SDS011;51097;51.984;5.650;2022-08-07T01:23:48;5.75;;;4.32;;
44822;SDS011;51097;51.984;5.650;2022-08-07T01:26:14;5.65;;;5.15;;
44822;SDS011;51097;51.984;5.650;2022-08-07T01:28:42;5.45;;;4.90;;
44822;SDS011;51097;51.984;5.650;2022-08-07T01:31:08;7.18;;;5.18;;
44822;SDS011;51097;51.984;5.650;2022-08-07T01:33:34;7.47;;;4.68;;
44822;SDS011;51097;51.984;5.650;2022-08-07T01:36:00;6.82;;;5.40;;
44822;SDS011;51097;51.984;5.650;2022-08-07T01:38:27;4.72;;;4.20;;
44822;SDS011;51097;51.984;5.650;2022-08-07T01:40:56;7.03;;;5.53;;
44822;SDS011;51097;51.984;5.650;2022-08-07T01:43:23;5.63;;;5.13;;
44822;SDS011;51097;51.984;5.650;2022-08-07T01:45:50;5.78;;;5.28;;
44822;SDS011;51097;51.984;5.650;2022-08-07T01:48:17;6.57;;;5.95;;
44822;SDS011;51097;51.984;5.650;2022-08-07T01:50:45;5.78;;;5.22;;
44822;SDS011;51097;51.984;5.650;2022-08-07T01:53:13;10.32;;;6.00;;
44822;SDS011;51097;51.984;5.650;2022-08-07T01:55:43;8.88;;;5.90;;
44822;SDS011;51097;51.984;5.650;2022-08-07T01:58:13;6.85;;;5.78;;
44822;SDS011;51097;51.984;5.650;2022-08-07T02:00:42;7.95;;;6.03;;
44822;SDS011;51097;51.984;5.650;2022-08-07T02:03:11;8.48;;;6.43;;
44822;SDS011;51097;51.984;5.650;2022-08-07T02:05:50;7.93;;;6.68;;
44822;SDS011;51097;51.984;5.650;2022-08-07T02:08:19;6.25;;;4.43;;
44822;SDS011;51097;51.984;5.650;2022-08-07T02:10:48;7.03;;;5.18;;
44822;SDS011;51097;51.984;5.650;2022-08-07T02:13:20;7.90;;;6.05;;
44822;SDS011;51097;51.984;5.650;2022-08-07T02:15:48;6.00;;;4.97;;
44822;SDS011;51097;51.984;5.650;2022-08-07T02:18:15;11.18;;;5.68;;
44822;SDS011;51097;51.984;5.650;2022-08-07T02:20:44;7.85;;;5.22;;
44822;SDS011;51097;51.984;5.650;2022-08-07T02:23:13;7.53;;;6.47;;
44822;SDS011;51097;51.984;5.650;2022-08-07T02:25:40;6.22;;;5.63;;
44822;SDS011;51097;51.984;5.650;2022-08-07T02:28:07;5.60;;;5.10;;
44822;SDS011;51097;51.984;5.650;2022-08-07T02:30:34;7.18;;;6.47;;
44822;SDS011;51097;51.984;5.650;2022-08-07T02:33:00;5.75;;;5.18;;
44822;SDS011;51097;51.984;5.650;2022-08-07T02:35:28;7.07;;;6.47;;
44822;SDS011;51097;51.984;5.650;2022-08-07T02:37:56;4.80;;;4.28;;
44822;SDS011;51097;51.984;5.650;2022-08-07T02:40:23;9.10;;;5.70;;
44822;SDS011;51097;51.984;5.650;2022-08-07T02:42:49;7.70;;;6.25;;
44822;SDS011;51097;51.984;5.650;2022-08-07T02:45:16;10.57;;;5.97;;
44822;SDS011;51097;51.984;5.650;2022-08-07T02:47:43;8.75;;;6.40;;
44822;SDS011;51097;51.984;5.650;2022-08-07T02:50:09;7.97;;;6.80;;
44822;SDS011;51097;51.984;5.650;2022-08-07T02:55:42;12.02;;;6.20;;
44822;SDS011;51097;51.984;5.650;2022-08-07T02:58:12;9.43;;;6.35;;
44822;SDS011;51097;51.984;5.650;2022-08-07T03:00:41;10.45;;;6.70;;
44822;SDS011;51097;51.984;5.650;2022-08-07T03:03:09;7.05;;;6.35;;
44822;SDS011;51097;51.984;5.650;2022-08-07T03:05:35;8.57;;;6.28;;
44822;SDS011;51097;51.984;5.650;2022-08-07T03:08:05;9.30;;;7.45;;
44822;SDS011;51097;51.984;5.650;2022-08-07T03:10:31;14.27;;;6.55;;
44822;SDS011;51097;51.984;5.650;2022-08-07T03:12:57;7.85;;;6.28;;
44822;SDS011;51097;51.984;5.650;2022-08-07T03:15:24;7.60;;;6.18;;
44822;SDS011;51097;51.984;5.650;2022-08-07T03:17:50;7.10;;;6.40;;
44822;SDS011;51097;51.984;5.650;2022-08-07T03:20:16;7.80;;;6.18;;
44822;SDS011;51097;51.984;5.650;2022-08-07T03:22:42;7.93;;;5.35;;
44822;SDS011;51097;51.984;5.650;2022-08-07T03:25:10;8.18;;;7.38;;
44822;SDS011;51097;51.984;5.650;2022-08-07T03:27:36;9.02;;;7.85;;
44822;SDS011;51097;51.984;5.650;2022-08-07T03:30:03;10.23;;;6.88;;
44822;SDS011;51097;51.984;5.650;2022-08-07T03:32:33;7.85;;;6.93;;
44822;SDS011;51097;51.984;5.650;2022-08-07T03:35:02;6.32;;;5.72;;
44822;SDS011;51097;51.984;5.650;2022-08-07T03:37:30;8.73;;;6.97;;
44822;SDS011;51097;51.984;5.650;2022-08-07T03:39:58;8.10;;;7.03;;
44822;SDS011;51097;51.984;5.650;2022-08-07T03:42:24;7.65;;;6.85;;
44822;SDS011;51097;51.984;5.650;2022-08-07T03:44:51;7.97;;;6.97;;
44822;SDS011;51097;51.984;5.650;2022-08-07T03:47:16;9.55;;;8.40;;
44822;SDS011;51097;51.984;5.650;2022-08-07T03:49:43;7.97;;;7.05;;
44822;SDS011;51097;51.984;5.650;2022-08-07T03:52:09;7.90;;;6.40;;
44822;SDS011;51097;51.984;5.650;2022-08-07T03:54:35;6.50;;;5.13;;
44822;SDS011;51097;51.984;5.650;2022-08-07T03:57:02;7.50;;;6.80;;
44822;SDS011;51097;51.984;5.650;2022-08-07T03:59:28;8.27;;;7.13;;
44822;SDS011;51097;51.984;5.650;2022-08-07T04:01:56;6.95;;;5.03;;
44822;SDS011;51097;51.984;5.650;2022-08-07T04:04:22;10.07;;;7.63;;
44822;SDS011;51097;51.984;5.650;2022-08-07T04:06:48;8.35;;;7.18;;
44822;SDS011;51097;51.984;5.650;2022-08-07T04:09:13;9.38;;;7.40;;
44822;SDS011;51097;51.984;5.650;2022-08-07T04:11:40;11.02;;;7.28;;
44822;SDS011;51097;51.984;5.650;2022-08-07T04:14:06;7.05;;;6.22;;
44822;SDS011;51097;51.984;5.650;2022-08-07T04:16:32;11.00;;;7.57;;
44822;SDS011;51097;51.984;5.650;2022-08-07T04:18:58;7.35;;;6.65;;
44822;SDS011;51097;51.984;5.650;2022-08-07T04:21:25;7.72;;;6.93;;
44822;SDS011;51097;51.984;5.650;2022-08-07T04:23:51;7.57;;;6.88;;
44822;SDS011;51097;51.984;5.650;2022-08-07T04:26:17;8.10;;;7.10;;
44822;SDS011;51097;51.984;5.650;2022-08-07T04:28:42;10.98;;;8.18;;
44822;SDS011;51097;51.984;5.650;2022-08-07T04:31:08;11.13;;;7.45;;
44822;SDS011;51097;51.984;5.650;2022-08-07T04:33:37;9.30;;;8.40;;
44822;SDS011;51097;51.984;5.650;2022-08-07T04:36:04;12.23;;;8.35;;
44822;SDS011;51097;51.984;5.650;2022-08-07T04:38:33;11.05;;;7.68;;
44822;SDS011;51097;51.984;5.650;2022-08-07T04:40:59;16.35;;;8.60;;
44822;SDS011;51097;51.984;5.650;2022-08-07T04:43:29;9.55;;;8.65;;
44822;SDS011;51097;51.984;5.650;2022-08-07T04:51:33;11.70;;;8.50;;
44822;SDS011;51097;51.984;5.650;2022-08-07T04:54:18;9.27;;;7.55;;
44822;SDS011;51097;51.984;5.650;2022-08-07T04:59:31;9.75;;;8.85;;
44822;SDS011;51097;51.984;5.650;2022-08-07T05:02:03;9.93;;;8.57;;
44822;SDS011;51097;51.984;5.650;2022-08-07T05:04:39;9.45;;;8.45;;
44822;SDS011;51097;51.984;5.650;2022-08-07T05:08:10;9.48;;;8.55;;
44822;SDS011;51097;51.984;5.650;2022-08-07T05:10:20;10.98;;;8.55;;
44822;SDS011;51097;51.984;5.650;2022-08-07T05:13:02;12.68;;;7.90;;
44822;SDS011;51097;51.984;5.650;2022-08-07T05:15:33;13.07;;;10.63;;
44822;SDS011;51097;51.984;5.650;2022-08-07T05:18:05;11.23;;;9.00;;
44822;SDS011;51097;51.984;5.650;2022-08-07T05:20:34;10.05;;;7.80;;
44822;SDS011;51097;51.984;5.650;2022-08-07T05:23:07;9.60;;;8.60;;
44822;SDS011;51097;51.984;5.650;2022-08-07T05:25:36;8.63;;;7.82;;
44822;SDS011;51097;51.984;5.650;2022-08-07T05:28:05;12.15;;;9.80;;
44822;SDS011;51097;51.984;5.650;2022-08-07T05:30:32;12.10;;;10.05;;
44822;SDS011;51097;51.984;5.650;2022-08-07T05:33:00;16.35;;;11.90;;
44822;SDS011;51097;51.984;5.650;2022-08-07T05:35:27;12.30;;;9.05;;
44822;SDS011;51097;51.984;5.650;2022-08-07T05:37:56;10.52;;;9.20;;
44822;SDS011;51097;51.984;5.650;2022-08-07T05:40:22;11.27;;;10.10;;
44822;SDS011;51097;51.984;5.650;2022-08-07T05:42:48;11.10;;;8.15;;
44822;SDS011;51097;51.984;5.650;2022-08-07T05:45:14;12.20;;;9.25;;
44822;SDS011;51097;51.984;5.650;2022-08-07T05:47:40;11.80;;;8.93;;
44822;SDS011;51097;51.984;5.650;2022-08-07T05:50:07;13.50;;;10.93;;
44822;SDS011;51097;51.984;5.650;2022-08-07T05:52:33;13.10;;;10.30;;
44822;SDS011;51097;51.984;5.650;2022-08-07T05:55:00;10.60;;;9.50;;
44822;SDS011;51097;51.984;5.650;2022-08-07T05:57:26;15.55;;;9.88;;
44822;SDS011;51097;51.984;5.650;2022-08-07T05:59:53;14.30;;;10.13;;
44822;SDS011;51097;51.984;5.650;2022-08-07T06:02:20;13.30;;;9.85;;
44822;SDS011;51097;51.984;5.650;2022-08-07T06:04:50;11.00;;;9.00;;
44822;SDS011;51097;51.984;5.650;2022-08-07T06:07:19;13.27;;;9.25;;
44822;SDS011;51097;51.984;5.650;2022-08-07T06:09:45;11.00;;;9.18;;
44822;SDS011;51097;51.984;5.650;2022-08-07T06:12:12;14.60;;;10.63;;
44822;SDS011;51097;51.984;5.650;2022-08-07T06:14:39;11.85;;;9.90;;
44822;SDS011;51097;51.984;5.650;2022-08-07T06:17:05;12.82;;;10.70;;
44822;SDS011;51097;51.984;5.650;2022-08-07T06:19:32;14.73;;;10.65;;
44822;SDS011;51097;51.984;5.650;2022-08-07T06:21:59;15.45;;;11.23;;
44822;SDS011;51097;51.984;5.650;2022-08-07T06:24:25;14.20;;;10.93;;
44822;SDS011;51097;51.984;5.650;2022-08-07T06:26:51;15.18;;;11.18;;
44822;SDS011;51097;51.984;5.650;2022-08-07T06:29:16;13.77;;;10.50;;
44822;SDS011;51097;51.984;5.650;2022-08-07T06:31:42;15.40;;;11.55;;
44822;SDS011;51097;51.984;5.650;2022-08-07T06:34:08;15.57;;;10.65;;
44822;SDS011;51097;51.984;5.650;2022-08-07T06:36:33;17.00;;;11.32;;
44822;SDS011;51097;51.984;5.650;2022-08-07T06:38:59;16.80;;;11.40;;
44822;SDS011;51097;51.984;5.650;2022-08-07T06:41:32;16.65;;;11.20;;
44822;SDS011;51097;51.984;5.650;2022-08-07T06:44:04;14.90;;;10.63;;
44822;SDS011;51097;51.984;5.650;2022-08-07T06:46:32;12.98;;;10.10;;
44822;SDS011;51097;51.984;5.650;2022-08-07T06:48:57;14.20;;;11.23;;
44822;SDS011;51097;51.984;5.650;2022-08-07T06:51:25;14.35;;;11.75;;
44822;SDS011;51097;51.984;5.650;2022-08-07T06:53:53;15.35;;;10.70;;
44822;SDS011;51097;51.984;5.650;2022-08-07T06:56:21;13.35;;;9.30;;
44822;SDS011;51097;51.984;5.650;2022-08-07T06:59:11;19.10;;;10.55;;
44822;SDS011;51097;51.984;5.650;2022-08-07T07:01:40;16.58;;;10.63;;
44822;SDS011;51097;51.984;5.650;2022-08-07T07:04:07;15.35;;;11.02;;
44822;SDS011;51097;51.984;5.650;2022-08-07T07:06:33;12.88;;;9.85;;
44822;SDS011;51097;51.984;5.650;2022-08-07T07:14:35;9.05;;;6.97;;
44822;SDS011;51097;51.984;5.650;2022-08-07T07:17:09;8.15;;;6.97;;
44822;SDS011;51097;51.984;5.650;2022-08-07T07:19:41;10.02;;;7.15;;
44822;SDS011;51097;51.984;5.650;2022-08-07T07:22:10;9.48;;;7.32;;
44822;SDS011;51097;51.984;5.650;2022-08-07T07:24:37;11.32;;;7.00;;
44822;SDS011;51097;51.984;5.650;2022-08-07T07:27:04;10.73;;;6.88;;
44822;SDS011;51097;51.984;5.650;2022-08-07T07:29:33;8.07;;;5.88;;
44822;SDS011;51097;51.984;5.650;2022-08-07T07:32:02;8.23;;;6.40;;
44822;SDS011;51097;51.984;5.650;2022-08-07T07:36:59;8.73;;;5.72;;
44822;SDS011;51097;51.984;5.650;2022-08-07T07:39:27;6.82;;;5.57;;
44822;SDS011;51097;51.984;5.650;2022-08-07T07:41:54;8.05;;;5.80;;
44822;SDS011;51097;51.984;5.650;2022-08-07T07:44:20;8.10;;;5.63;;
44822;SDS011;51097;51.984;5.650;2022-08-07T07:46:48;6.25;;;5.45;;
44822;SDS011;51097;51.984;5.650;2022-08-07T07:49:16;7.82;;;5.15;;
44822;SDS011;51097;51.984;5.650;2022-08-07T07:51:43;7.55;;;5.10;;
44822;SDS011;51097;51.984;5.650;2022-08-07T07:54:11;8.02;;;5.75;;
44822;SDS011;51097;51.984;5.650;2022-08-07T07:56:49;7.18;;;5.50;;
44822;SDS011;51097;51.984;5.650;2022-08-07T07:59:16;7.57;;;5.50;;
44822;SDS011;51097;51.984;5.650;2022-08-07T08:01:44;6.88;;;5.32;;
44822;SDS011;51097;51.984;5.650;2022-08-07T08:04:12;7.00;;;5.93;;
44822;SDS011;51097;51.984;5.650;2022-08-07T08:06:39;7.15;;;5.72;;
44822;SDS011;51097;51.984;5.650;2022-08-07T08:09:07;9.05;;;5.15;;
44822;SDS011;51097;51.984;5.650;2022-08-07T08:11:34;8.50;;;5.50;;
44822;SDS011;51097;51.984;5.650;2022-08-07T08:14:01;5.68;;;4.82;;
44822;SDS011;51097;51.984;5.650;2022-08-07T08:16:34;6.28;;;5.68;;
44822;SDS011;51097;51.984;5.650;2022-08-07T08:19:03;5.43;;;4.93;;
44822;SDS011;51097;51.984;5.650;2022-08-07T08:21:31;7.38;;;5.18;;
44822;SDS011;51097;51.984;5.650;2022-08-07T08:24:16;6.88;;;4.18;;
44822;SDS011;51097;51.984;5.650;2022-08-07T08:27:00;7.78;;;5.38;;
44822;SDS011;51097;51.984;5.650;2022-08-07T08:30:10;6.72;;;4.32;;
44822;SDS011;51097;51.984;5.650;2022-08-07T08:32:30;5.82;;;4.63;;
44822;SDS011;51097;51.984;5.650;2022-08-07T08:35:00;6.10;;;5.53;;
44822;SDS011;51097;51.984;5.650;2022-08-07T08:37:27;5.88;;;5.07;;
44822;SDS011;51097;51.984;5.650;2022-08-07T08:39:56;6.30;;;4.47;;
44822;SDS011;51097;51.984;5.650;2022-08-07T08:42:30;5.53;;;4.93;;
44822;SDS011;51097;51.984;5.650;2022-08-07T08:50:20;6.60;;;4.97;;
44822;SDS011;51097;51.984;5.650;2022-08-07T08:53:01;5.57;;;4.78;;
44822;SDS011;51097;51.984;5.650;2022-08-07T08:55:36;7.55;;;4.95;;
44822;SDS011;51097;51.984;5.650;2022-08-07T08:58:14;4.88;;;4.45;;
44822;SDS011;51097;51.984;5.650;2022-08-07T09:00:50;7.43;;;4.88;;
44822;SDS011;51097;51.984;5.650;2022-08-07T09:06:25;6.88;;;4.30;;
44822;SDS011;51097;51.984;5.650;2022-08-07T09:14:13;7.68;;;5.60;;
44822;SDS011;51097;51.984;5.650;2022-08-07T09:16:59;8.15;;;4.53;;
44822;SDS011;51097;51.984;5.650;2022-08-07T09:27:10;6.15;;;3.78;;
44822;SDS011;51097;51.984;5.650;2022-08-07T09:37:44;4.20;;;3.70;;
44822;SDS011;51097;51.984;5.650;2022-08-07T09:40:29;6.80;;;4.03;;
44822;SDS011;51097;51.984;5.650;2022-08-07T09:43:06;5.00;;;3.85;;
44822;SDS011;51097;51.984;5.650;2022-08-07T09:45:57;5.05;;;2.90;;
44822;SDS011;51097;51.984;5.650;2022-08-07T09:48:53;3.10;;;2.40;;
44822;SDS011;51097;51.984;5.650;2022-08-07T09:53:52;3.22;;;2.22;;
44822;SDS011;51097;51.984;5.650;2022-08-07T09:56:49;5.00;;;2.38;;
44822;SDS011;51097;51.984;5.650;2022-08-07T10:02:54;5.07;;;2.55;;
44822;SDS011;51097;51.984;5.650;2022-08-07T10:11:09;8.30;;;4.82;;
44822;SDS011;51097;51.984;5.650;2022-08-07T10:14:03;4.50;;;3.50;;
44822;SDS011;51097;51.984;5.650;2022-08-07T10:23:21;4.57;;;3.13;;
44822;SDS011;51097;51.984;5.650;2022-08-07T10:34:56;3.58;;;2.90;;
44822;SDS011;51097;51.984;5.650;2022-08-07T10:40:05;2.85;;;2.10;;
44822;SDS011;51097;51.984;5.650;2022-08-07T10:42:37;4.10;;;3.00;;
44822;SDS011;51097;51.984;5.650;2022-08-07T10:50:30;5.00;;;2.92;;
44822;SDS011;51097;51.984;5.650;2022-08-07T11:07:00;3.30;;;2.20;;
44822;SDS011;51097;51.984;5.650;2022-08-07T11:09:33;7.60;;;2.80;;
44822;SDS011;51097;51.984;5.650;2022-08-07T11:14:40;3.38;;;2.65;;
44822;SDS011;51097;51.984;5.650;2022-08-07T11:17:12;4.80;;;2.63;;
44822;SDS011;51097;51.984;5.650;2022-08-07T11:19:51;4.25;;;3.25;;
44822;SDS011;51097;51.984;5.650;2022-08-07T11:22:25;5.88;;;2.72;;
44822;SDS011;51097;51.984;5.650;2022-08-07T11:25:05;5.35;;;2.78;;
44822;SDS011;51097;51.984;5.650;2022-08-07T11:27:45;5.65;;;2.50;;
44822;SDS011;51097;51.984;5.650;2022-08-07T11:30:19;2.72;;;1.67;;
44822;SDS011;51097;51.984;5.650;2022-08-07T11:32:56;3.65;;;2.75;;
44822;SDS011;51097;51.984;5.650;2022-08-07T11:35:33;3.08;;;2.17;;
44822;SDS011;51097;51.984;5.650;2022-08-07T11:38:25;4.10;;;2.00;;
44822;SDS011;51097;51.984;5.650;2022-08-07T11:43:38;3.17;;;2.00;;
44822;SDS011;51097;51.984;5.650;2022-08-07T11:57:52;3.45;;;1.95;;
44822;SDS011;51097;51.984;5.650;2022-08-07T12:00:30;2.15;;;1.90;;
44822;SDS011;51097;51.984;5.650;2022-08-07T12:09:09;2.90;;;1.85;;
44822;SDS011;51097;51.984;5.650;2022-08-07T12:14:25;2.83;;;2.08;;
44822;SDS011;51097;51.984;5.650;2022-08-07T12:16:55;3.50;;;1.55;;
44822;SDS011;51097;51.984;5.650;2022-08-07T12:22:08;2.85;;;1.75;;
44822;SDS011;51097;51.984;5.650;2022-08-07T12:27:49;3.53;;;1.75;;
44822;SDS011;51097;51.984;5.650;2022-08-07T12:30:19;3.20;;;1.73;;
44822;SDS011;51097;51.984;5.650;2022-08-07T12:32:56;4.05;;;1.73;;
44822;SDS011;51097;51.984;5.650;2022-08-07T12:35:25;2.38;;;1.60;;
44822;SDS011;51097;51.984;5.650;2022-08-07T12:37:55;2.10;;;1.70;;
44822;SDS011;51097;51.984;5.650;2022-08-07T12:40:24;4.75;;;2.10;;
44822;SDS011;51097;51.984;5.650;2022-08-07T12:42:52;6.07;;;1.95;;
44822;SDS011;51097;51.984;5.650;2022-08-07T12:45:30;3.23;;;1.83;;
44822;SDS011;51097;51.984;5.650;2022-08-07T12:48:03;2.03;;;1.63;;
44822;SDS011;51097;51.984;5.650;2022-08-07T12:50:40;2.05;;;1.75;;
44822;SDS011;51097;51.984;5.650;2022-08-07T12:53:21;3.55;;;1.88;;
44822;SDS011;51097;51.984;5.650;2022-08-07T12:56:01;2.25;;;1.98;;
44822;SDS011;51097;51.984;5.650;2022-08-07T12:58:37;1.77;;;1.33;;
44822;SDS011;51097;51.984;5.650;2022-08-07T13:24:09;3.47;;;1.60;;
44822;SDS011;51097;51.984;5.650;2022-08-07T13:32:24;2.75;;;1.67;;
44822;SDS011;51097;51.984;5.650;2022-08-07T13:37:51;2.95;;;1.92;;
44822;SDS011;51097;51.984;5.650;2022-08-07T13:40:27;1.67;;;1.15;;
44822;SDS011;51097;51.984;5.650;2022-08-07T13:42:55;2.08;;;1.45;;
44822;SDS011;51097;51.984;5.650;2022-08-07T13:45:24;1.95;;;1.08;;
44822;SDS011;51097;51.984;5.650;2022-08-07T13:47:54;2.25;;;1.67;;
44822;SDS011;51097;51.984;5.650;2022-08-07T13:50:22;2.38;;;1.40;;
44822;SDS011;51097;51.984;5.650;2022-08-07T13:52:49;3.22;;;1.50;;
44822;SDS011;51097;51.984;5.650;2022-08-07T13:55:18;1.30;;;1.17;;
44822;SDS011;51097;51.984;5.650;2022-08-07T13:57:47;5.45;;;1.60;;
44822;SDS011;51097;51.984;5.650;2022-08-07T14:00:16;1.42;;;1.20;;
44822;SDS011;51097;51.984;5.650;2022-08-07T14:02:43;2.13;;;1.45;;
44822;SDS011;51097;51.984;5.650;2022-08-07T14:05:12;2.95;;;1.20;;
44822;SDS011;51097;51.984;5.650;2022-08-07T14:07:45;5.15;;;1.77;;
44822;SDS011;51097;51.984;5.650;2022-08-07T14:10:12;2.72;;;1.35;;
44822;SDS011;51097;51.984;5.650;2022-08-07T14:12:43;1.55;;;1.30;;
44822;SDS011;51097;51.984;5.650;2022-08-07T14:18:03;4.85;;;1.20;;
44822;SDS011;51097;51.984;5.650;2022-08-07T14:20:42;1.95;;;1.48;;
44822;SDS011;51097;51.984;5.650;2022-08-07T14:23:14;3.33;;;1.80;;
44822;SDS011;51097;51.984;5.650;2022-08-07T14:26:04;1.25;;;1.05;;
44822;SDS011;51097;51.984;5.650;2022-08-07T14:28:35;1.52;;;1.08;;
44822;SDS011;51097;51.984;5.650;2022-08-07T14:31:01;1.40;;;1.20;;
44822;SDS011;51097;51.984;5.650;2022-08-07T14:33:30;1.85;;;1.60;;
44822;SDS011;51097;51.984;5.650;2022-08-07T14:35:57;1.55;;;0.90;;
44822;SDS011;51097;51.984;5.650;2022-08-07T14:38:25;2.33;;;1.17;;
44822;SDS011;51097;51.984;5.650;2022-08-07T14:40:54;1.20;;;1.10;;
44822;SDS011;51097;51.984;5.650;2022-08-07T14:43:22;1.50;;;1.20;;
44822;SDS011;51097;51.984;5.650;2022-08-07T14:45:52;1.30;;;1.20;;
44822;SDS011;51097;51.984;5.650;2022-08-07T14:48:32;4.65;;;1.45;;
44822;SDS011;51097;51.984;5.650;2022-08-07T14:51:04;2.58;;;1.67;;
44822;SDS011;51097;51.984;5.650;2022-08-07T14:53:36;3.45;;;2.20;;
44822;SDS011;51097;51.984;5.650;2022-08-07T14:56:06;2.22;;;1.88;;
44822;SDS011;51097;51.984;5.650;2022-08-07T14:58:34;2.88;;;2.33;;
44822;SDS011;51097;51.984;5.650;2022-08-07T15:01:04;2.50;;;2.20;;
44822;SDS011;51097;51.984;5.650;2022-08-07T15:03:30;5.57;;;2.20;;
44822;SDS011;51097;51.984;5.650;2022-08-07T15:05:58;2.65;;;2.35;;
44822;SDS011;51097;51.984;5.650;2022-08-07T15:08:26;2.40;;;2.20;;
44822;SDS011;51097;51.984;5.650;2022-08-07T15:11:00;2.70;;;2.25;;
44822;SDS011;51097;51.984;5.650;2022-08-07T15:13:29;4.57;;;2.17;;
44822;SDS011;51097;51.984;5.650;2022-08-07T15:16:05;3.58;;;2.28;;
44822;SDS011;51097;51.984;5.650;2022-08-07T15:18:33;5.40;;;1.95;;
44822;SDS011;51097;51.984;5.650;2022-08-07T15:21:03;3.33;;;2.33;;
44822;SDS011;51097;51.984;5.650;2022-08-07T15:23:37;6.88;;;1.92;;
44822;SDS011;51097;51.984;5.650;2022-08-07T15:26:06;1.95;;;1.75;;
44822;SDS011;51097;51.984;5.650;2022-08-07T15:28:34;2.78;;;2.30;;
44822;SDS011;51097;51.984;5.650;2022-08-07T15:31:03;2.83;;;1.80;;
44822;SDS011;51097;51.984;5.650;2022-08-07T15:33:33;4.85;;;1.90;;
44822;SDS011;51097;51.984;5.650;2022-08-07T15:36:03;3.00;;;1.73;;
44822;SDS011;51097;51.984;5.650;2022-08-07T15:38:32;5.25;;;2.05;;
44822;SDS011;51097;51.984;5.650;2022-08-07T15:41:00;4.50;;;2.13;;
44822;SDS011;51097;51.984;5.650;2022-08-07T15:43:33;2.22;;;1.50;;
44822;SDS011;51097;51.984;5.650;2022-08-07T15:46:13;2.88;;;1.60;;
44822;SDS011;51097;51.984;5.650;2022-08-07T15:48:42;1.90;;;1.67;;
44822;SDS011;51097;51.984;5.650;2022-08-07T15:51:10;1.48;;;1.38;;
44822;SDS011;51097;51.984;5.650;2022-08-07T15:53:44;3.67;;;1.50;;
44822;SDS011;51097;51.984;5.650;2022-08-07T15:56:15;1.88;;;1.50;;
44822;SDS011;51097;51.984;5.650;2022-08-07T15:58:47;3.08;;;1.63;;
44822;SDS011;51097;51.984;5.650;2022-08-07T16:03:53;3.25;;;0.98;;
44822;SDS011;51097;51.984;5.650;2022-08-07T16:06:24;2.05;;;1.35;;
44822;SDS011;51097;51.984;5.650;2022-08-07T16:09:05;1.83;;;1.40;;
44822;SDS011;51097;51.984;5.650;2022-08-07T16:11:49;3.75;;;1.58;;
44822;SDS011;51097;51.984;5.650;2022-08-07T16:17:38;2.75;;;1.48;;
44822;SDS011;51097;51.984;5.650;2022-08-07T16:23:14;2.65;;;1.30;;
44822;SDS011;51097;51.984;5.650;2022-08-07T16:33:48;3.03;;;1.45;;
44822;SDS011;51097;51.984;5.650;2022-08-07T16:36:31;3.72;;;1.50;;
44822;SDS011;51097;51.984;5.650;2022-08-07T16:50:20;1.98;;;1.42;;
44822;SDS011;51097;51.984;5.650;2022-08-07T16:58:59;1.77;;;1.67;;
44822;SDS011;51097;51.984;5.650;2022-08-07T17:01:34;4.75;;;1.77;;
44822;SDS011;51097;51.984;5.650;2022-08-07T17:09:32;1.95;;;1.52;;
44822;SDS011;51097;51.984;5.650;2022-08-07T17:20:08;1.98;;;1.80;;
44822;SDS011;51097;51.984;5.650;2022-08-07T17:31:20;4.60;;;2.33;;
44822;SDS011;51097;51.984;5.650;2022-08-07T17:34:00;3.63;;;1.88;;
44822;SDS011;51097;51.984;5.650;2022-08-07T17:36:35;2.97;;;2.33;;
44822;SDS011;51097;51.984;5.650;2022-08-07T17:39:07;4.22;;;2.38;;
44822;SDS011;51097;51.984;5.650;2022-08-07T17:41:44;2.70;;;2.50;;
44822;SDS011;51097;51.984;5.650;2022-08-07T17:49:52;5.47;;;2.67;;
44822;SDS011;51097;51.984;5.650;2022-08-07T17:52:24;4.40;;;2.28;;
44822;SDS011;51097;51.984;5.650;2022-08-07T17:55:02;5.55;;;2.55;;
44822;SDS011;51097;51.984;5.650;2022-08-07T17:57:57;3.80;;;2.47;;
44822;SDS011;51097;51.984;5.650;2022-08-07T18:00:28;3.05;;;2.70;;
44822;SDS011;51097;51.984;5.650;2022-08-07T18:05:34;6.18;;;3.20;;
44822;SDS011;51097;51.984;5.650;2022-08-07T18:08:18;7.18;;;2.88;;
44822;SDS011;51097;51.984;5.650;2022-08-07T18:11:16;4.45;;;2.70;;
44822;SDS011;51097;51.984;5.650;2022-08-07T18:13:48;2.88;;;2.67;;
44822;SDS011;51097;51.984;5.650;2022-08-07T18:19:06;5.07;;;2.72;;
44822;SDS011;51097;51.984;5.650;2022-08-07T18:21:39;5.68;;;3.80;;
44822;SDS011;51097;51.984;5.650;2022-08-07T18:40:34;3.72;;;3.35;;
44822;SDS011;51097;51.984;5.650;2022-08-07T18:43:09;3.25;;;2.95;;
44822;SDS011;51097;51.984;5.650;2022-08-07T18:45:49;5.88;;;3.20;;
44822;SDS011;51097;51.984;5.650;2022-08-07T18:48:22;4.20;;;3.20;;
44822;SDS011;51097;51.984;5.650;2022-08-07T18:51:11;7.05;;;3.42;;
44822;SDS011;51097;51.984;5.650;2022-08-07T18:56:43;6.95;;;3.13;;
44822;SDS011;51097;51.984;5.650;2022-08-07T18:59:23;6.00;;;3.72;;
44822;SDS011;51097;51.984;5.650;2022-08-07T19:07:33;6.47;;;3.42;;
44822;SDS011;51097;51.984;5.650;2022-08-07T19:10:11;5.88;;;3.60;;
44822;SDS011;51097;51.984;5.650;2022-08-07T19:15:31;6.75;;;3.60;;
44822;SDS011;51097;51.984;5.650;2022-08-07T19:20:59;8.55;;;4.45;;
44822;SDS011;51097;51.984;5.650;2022-08-07T19:23:58;12.73;;;4.10;;
44822;SDS011;51097;51.984;5.650;2022-08-07T19:26:28;4.93;;;3.85;;